Rumusan perlumbaan (Litar: Estoril | Musim: 19 | Perlumbaan: 2 | Kumpulan: Elite)

Musim:  Perlumbaan:

Pilih kumpulan lain:

Pos Perkembangan Tayar Kew Nama pengurus Masa perlumbaan Lap Hentian pit Lap terbaik Kelajuan purata Masa lap terbaik
01. Tidak berubah ±0 Michelini   Toygun Senler1 1h28:33.619 70 3 1:13.012 206.77km/h 12.178s
02. +6 +6 Michelini   Nuno Vicente + 9.579 70 2 1:13.455 206.40km/h 14.051s
03. Tidak berubah ±0 Michelini   Edvinas Pranculevicius + 12.049 70 3 1:13.109 206.31km/h 9.870s
04. +5 +5 Michelini   Jan Zaluski + 24.843 70 2 1:13.596 205.81km/h 14.044s
05. -1 -1 Michelini   Zdenek Hladik + 25.378 70 2 1:13.477 205.79km/h 14.526s
06. +6 +6 Michelini   Jari Aareskoski3 + 25.849 70 3 1:12.962 205.77km/h 9.303s
07. +16 +16 Michelini   Rimantas Sagatas + 34.729 70 1 1:13.331 205.43km/h 15.987s
08. -6 -6 Michelini   Vladimir Islentiev2 + 35.539 70 3 1:12.926 205.40km/h 9.769s
09. +2 +2 Michelini   Martynas Molneris + 44.227 70 2 1:13.669 205.07km/h 14.772s
10. +5 +5 Michelini   Tomasz Kaminski + 55.434 70 2 1:13.623 204.64km/h 12.417s
11. +3 +3 Michelini   Joan Centellas + 59.179 70 3 1:13.663 204.50km/h 11.536s
12. -5 -5 Michelini   Rui Fonseca + 1:01.139 70 2 1:13.454 204.42km/h 13.754s
13. -7 -7 Michelini   Wagner Souza + 1:04.718 70 3 1:13.474 204.29km/h 16.406s
14. +2 +2 Michelini   Renato Svaiter + 1:16.662 69 2 1:13.986 203.83km/h 16.209s
15. +5 +5 Dunnolop   Daniele Ambroggi + 1:17.185 69 2 1:13.875 203.81km/h 12.456s
16. +12 +12 Michelini   Laila Britāle + 1:17.326 69 3 1:13.594 203.81km/h 10.679s
17. +4 +4 Michelini   Aleksej Sutkin + 1:17.806 69 3 1:13.533 203.79km/h 12.735s
18. -8 -8 Michelini   Denis Grahov + 1:19.201 69 3 1:14.010 203.74km/h 12.369s
19. -2 -2 Badyear   Toni Söyrinki + 1:20.653 69 2 1:14.136 203.68km/h 14.323s
20. -1 -1 Michelini   Filipe Miguel + 1:34.131 69 2 1:14.043 203.18km/h 18.369s
21. +12 +12 Michelini   Lucas Secundo Abreu + 1:36.673 69 1 1:14.418 203.08km/h 24.923s
22. +5 +5 Michelini   Martin Rosina + 1:37.185 69 2 1:14.040 203.06km/h 15.943s
23. -1 -1 Michelini   Vitor Novo + 1:37.497 69 2 1:13.934 203.05km/h 17.416s
24. +1 +1 Dunnolop   Andrius Talandzevicius + 1:37.742 69 2 1:14.319 203.04km/h 15.443s
25. -12 -12 Michelini   Marek Marchewka + 1:56.647 69 3 1:13.724 202.33km/h 11.865s
26. -8 -8 Badyear   Michał Smiatacz + 2:00.034 69 2 1:14.557 202.21km/h 22.701s
27. -1 -1 Badyear   Michael Monaco + 2:18.105 69 3 1:14.007 201.54km/h 13.486s
28. +1 +1 Badyear   Lee Ifans + 2:26.285 68 2 1:14.949 201.23km/h 16.928s
29. +2 +2 Dunnolop   Gabriel Toma + 2:36.966 68 2 1:15.137 200.84km/h 13.959s
30. +2 +2 Dunnolop   Leandro Sereno2 + 3:00.830 68 3 1:14.385 199.97km/h 10.684s
31. +5 +5 Pipirelli   Mikko Heikkinen + 3:58.167 67 1 1:16.694 197.90km/h 15.040s
32. +2 +2 Dunnolop   Kostas Farsalinos + 3:58.317 67 1 1:16.370 197.90km/h 17.249s
33. -3 -3 Dunnolop   Andy Zavarin + 4:17.761 67 3 1:15.791 197.21km/h 21.509s
34. -10 -10 Dunnolop   Oli Jais + 4:19.899 67 5 1:14.655 197.13km/h 11.185s
35. +2 +2 Pipirelli   Philipp Hartmann + 5:19.555 66 2 1:17.565 195.04km/h 13.335s
36. -1 -1 Pipirelli   Craig Templeman + 6:20.658 65 2 1:18.166 192.95km/h 18.685s
37. +1 +1 Pipirelli   Martynas Atkočius + 6:38.179 65 2 1:18.305 192.36km/h 17.667s
Tidak tersenarai
38. -33 -33 Michelini   João Monteiro Kemalangan di permulaan 0 0 -    -